sensor_id;sensor_type;location;lat;lon;timestamp;P1;durP1;ratioP1;P2;durP2;ratioP2
34978;SDS011;21185;50.978;13.720;2023-04-15T00:02:27;1.50;;;0.90;;
34978;SDS011;21185;50.978;13.720;2023-04-15T00:07:30;3.45;;;1.40;;
34978;SDS011;21185;50.978;13.720;2023-04-15T00:12:32;2.58;;;1.30;;
34978;SDS011;21185;50.978;13.720;2023-04-15T00:17:34;2.08;;;1.17;;
34978;SDS011;21185;50.978;13.720;2023-04-15T00:22:36;1.52;;;1.02;;
34978;SDS011;21185;50.978;13.720;2023-04-15T00:27:38;1.23;;;1.10;;
34978;SDS011;21185;50.978;13.720;2023-04-15T00:32:41;1.33;;;0.90;;
34978;SDS011;21185;50.978;13.720;2023-04-15T00:37:43;0.77;;;0.73;;
34978;SDS011;21185;50.978;13.720;2023-04-15T00:42:46;1.85;;;1.00;;
34978;SDS011;21185;50.978;13.720;2023-04-15T00:47:49;1.05;;;0.95;;
34978;SDS011;21185;50.978;13.720;2023-04-15T00:52:51;1.63;;;0.88;;
34978;SDS011;21185;50.978;13.720;2023-04-15T00:57:53;0.40;;;0.40;;
34978;SDS011;21185;50.978;13.720;2023-04-15T01:02:56;3.13;;;1.13;;
34978;SDS011;21185;50.978;13.720;2023-04-15T01:07:58;0.80;;;0.80;;
34978;SDS011;21185;50.978;13.720;2023-04-15T01:13:01;2.58;;;1.15;;
34978;SDS011;21185;50.978;13.720;2023-04-15T01:18:04;1.83;;;1.00;;
34978;SDS011;21185;50.978;13.720;2023-04-15T01:23:06;4.22;;;1.60;;
34978;SDS011;21185;50.978;13.720;2023-04-15T01:28:08;2.10;;;1.30;;
34978;SDS011;21185;50.978;13.720;2023-04-15T01:33:11;1.65;;;1.08;;
34978;SDS011;21185;50.978;13.720;2023-04-15T01:38:13;2.25;;;1.27;;
34978;SDS011;21185;50.978;13.720;2023-04-15T01:43:16;2.05;;;1.42;;
34978;SDS011;21185;50.978;13.720;2023-04-15T01:48:18;1.60;;;1.17;;
34978;SDS011;21185;50.978;13.720;2023-04-15T01:53:20;1.17;;;0.95;;
34978;SDS011;21185;50.978;13.720;2023-04-15T01:58:22;2.40;;;2.08;;
34978;SDS011;21185;50.978;13.720;2023-04-15T02:03:24;1.10;;;0.90;;
34978;SDS011;21185;50.978;13.720;2023-04-15T02:08:26;1.00;;;0.90;;
34978;SDS011;21185;50.978;13.720;2023-04-15T02:13:30;1.10;;;1.00;;
34978;SDS011;21185;50.978;13.720;2023-04-15T02:18:32;1.27;;;1.08;;
34978;SDS011;21185;50.978;13.720;2023-04-15T02:23:34;1.02;;;0.93;;
34978;SDS011;21185;50.978;13.720;2023-04-15T02:28:36;0.82;;;0.82;;
34978;SDS011;21185;50.978;13.720;2023-04-15T02:33:38;1.00;;;0.57;;
34978;SDS011;21185;50.978;13.720;2023-04-15T02:38:46;1.20;;;0.90;;
34978;SDS011;21185;50.978;13.720;2023-04-15T02:43:49;1.30;;;0.85;;
34978;SDS011;21185;50.978;13.720;2023-04-15T02:48:51;1.35;;;1.00;;
34978;SDS011;21185;50.978;13.720;2023-04-15T02:53:56;1.83;;;1.00;;
34978;SDS011;21185;50.978;13.720;2023-04-15T02:58:58;1.48;;;1.00;;
34978;SDS011;21185;50.978;13.720;2023-04-15T03:04:01;1.17;;;0.90;;
34978;SDS011;21185;50.978;13.720;2023-04-15T03:09:03;2.47;;;1.38;;
34978;SDS011;21185;50.978;13.720;2023-04-15T03:14:09;1.00;;;0.80;;
34978;SDS011;21185;50.978;13.720;2023-04-15T03:19:17;1.65;;;1.02;;
34978;SDS011;21185;50.978;13.720;2023-04-15T03:24:19;0.73;;;0.73;;
34978;SDS011;21185;50.978;13.720;2023-04-15T03:29:22;0.88;;;0.82;;
34978;SDS011;21185;50.978;13.720;2023-04-15T03:34:24;1.00;;;0.90;;
34978;SDS011;21185;50.978;13.720;2023-04-15T03:39:26;1.38;;;1.27;;
34978;SDS011;21185;50.978;13.720;2023-04-15T03:44:28;1.20;;;0.93;;
34978;SDS011;21185;50.978;13.720;2023-04-15T03:49:30;0.98;;;0.85;;
34978;SDS011;21185;50.978;13.720;2023-04-15T03:54:32;1.63;;;0.90;;
34978;SDS011;21185;50.978;13.720;2023-04-15T03:59:34;2.45;;;0.82;;
34978;SDS011;21185;50.978;13.720;2023-04-15T04:04:36;1.50;;;1.00;;
34978;SDS011;21185;50.978;13.720;2023-04-15T04:09:38;1.10;;;1.00;;
34978;SDS011;21185;50.978;13.720;2023-04-15T04:14:41;1.70;;;1.17;;
34978;SDS011;21185;50.978;13.720;2023-04-15T04:19:43;1.30;;;0.73;;
34978;SDS011;21185;50.978;13.720;2023-04-15T04:24:45;1.52;;;1.10;;
34978;SDS011;21185;50.978;13.720;2023-04-15T04:29:47;0.95;;;0.85;;
34978;SDS011;21185;50.978;13.720;2023-04-15T04:34:50;1.55;;;1.13;;
34978;SDS011;21185;50.978;13.720;2023-04-15T04:39:52;1.42;;;0.90;;
34978;SDS011;21185;50.978;13.720;2023-04-15T04:44:54;1.13;;;0.93;;
34978;SDS011;21185;50.978;13.720;2023-04-15T04:49:56;2.30;;;1.17;;
34978;SDS011;21185;50.978;13.720;2023-04-15T04:54:57;0.88;;;0.80;;
34978;SDS011;21185;50.978;13.720;2023-04-15T04:59:59;0.90;;;0.68;;
34978;SDS011;21185;50.978;13.720;2023-04-15T05:05:05;0.60;;;0.60;;
34978;SDS011;21185;50.978;13.720;2023-04-15T05:10:08;1.10;;;0.88;;
34978;SDS011;21185;50.978;13.720;2023-04-15T05:15:10;1.13;;;0.93;;
34978;SDS011;21185;50.978;13.720;2023-04-15T05:20:12;1.15;;;0.70;;
34978;SDS011;21185;50.978;13.720;2023-04-15T05:25:15;1.10;;;0.68;;
34978;SDS011;21185;50.978;13.720;2023-04-15T05:30:17;0.70;;;0.70;;
34978;SDS011;21185;50.978;13.720;2023-04-15T05:35:19;0.43;;;0.43;;
34978;SDS011;21185;50.978;13.720;2023-04-15T05:40:22;0.40;;;0.40;;
34978;SDS011;21185;50.978;13.720;2023-04-15T05:45:24;0.60;;;0.60;;
34978;SDS011;21185;50.978;13.720;2023-04-15T05:50:26;0.60;;;0.60;;
34978;SDS011;21185;50.978;13.720;2023-04-15T05:55:28;0.52;;;0.52;;
34978;SDS011;21185;50.978;13.720;2023-04-15T06:00:29;0.50;;;0.50;;
34978;SDS011;21185;50.978;13.720;2023-04-15T06:05:31;0.50;;;0.40;;
34978;SDS011;21185;50.978;13.720;2023-04-15T06:10:34;0.50;;;0.50;;
34978;SDS011;21185;50.978;13.720;2023-04-15T06:15:37;0.50;;;0.50;;
34978;SDS011;21185;50.978;13.720;2023-04-15T06:20:42;0.80;;;0.60;;
34978;SDS011;21185;50.978;13.720;2023-04-15T06:25:44;0.75;;;0.70;;
34978;SDS011;21185;50.978;13.720;2023-04-15T06:30:47;0.88;;;0.70;;
34978;SDS011;21185;50.978;13.720;2023-04-15T06:35:49;1.35;;;0.85;;
34978;SDS011;21185;50.978;13.720;2023-04-15T06:40:51;0.88;;;0.60;;
34978;SDS011;21185;50.978;13.720;2023-04-15T06:45:53;0.60;;;0.60;;
34978;SDS011;21185;50.978;13.720;2023-04-15T06:50:55;0.85;;;0.73;;
34978;SDS011;21185;50.978;13.720;2023-04-15T06:55:58;0.70;;;0.70;;
34978;SDS011;21185;50.978;13.720;2023-04-15T07:01:01;1.73;;;0.70;;
34978;SDS011;21185;50.978;13.720;2023-04-15T07:06:04;1.10;;;0.80;;
34978;SDS011;21185;50.978;13.720;2023-04-15T07:11:07;0.60;;;0.60;;
34978;SDS011;21185;50.978;13.720;2023-04-15T07:16:09;0.77;;;0.70;;
34978;SDS011;21185;50.978;13.720;2023-04-15T07:21:11;1.50;;;0.75;;
34978;SDS011;21185;50.978;13.720;2023-04-15T07:26:13;1.13;;;1.00;;
34978;SDS011;21185;50.978;13.720;2023-04-15T07:31:15;0.50;;;0.50;;
34978;SDS011;21185;50.978;13.720;2023-04-15T07:36:18;2.33;;;1.10;;
34978;SDS011;21185;50.978;13.720;2023-04-15T07:41:20;0.82;;;0.80;;
34978;SDS011;21185;50.978;13.720;2023-04-15T07:46:23;1.08;;;1.00;;
34978;SDS011;21185;50.978;13.720;2023-04-15T07:51:27;2.08;;;1.15;;
34978;SDS011;21185;50.978;13.720;2023-04-15T07:56:30;1.58;;;0.98;;
34978;SDS011;21185;50.978;13.720;2023-04-15T08:01:31;3.05;;;1.10;;
34978;SDS011;21185;50.978;13.720;2023-04-15T08:06:34;0.70;;;0.70;;
34978;SDS011;21185;50.978;13.720;2023-04-15T08:11:37;0.77;;;0.60;;
34978;SDS011;21185;50.978;13.720;2023-04-15T08:16:40;1.05;;;0.60;;
34978;SDS011;21185;50.978;13.720;2023-04-15T08:21:41;1.27;;;0.80;;
34978;SDS011;21185;50.978;13.720;2023-04-15T08:26:44;2.42;;;0.80;;
34978;SDS011;21185;50.978;13.720;2023-04-15T08:31:47;1.63;;;1.00;;
34978;SDS011;21185;50.978;13.720;2023-04-15T08:36:49;1.15;;;0.98;;
34978;SDS011;21185;50.978;13.720;2023-04-15T08:42:01;1.58;;;1.05;;
34978;SDS011;21185;50.978;13.720;2023-04-15T08:47:07;2.38;;;1.13;;
34978;SDS011;21185;50.978;13.720;2023-04-15T08:52:10;2.58;;;1.13;;
34978;SDS011;21185;50.978;13.720;2023-04-15T08:57:13;1.30;;;0.93;;
34978;SDS011;21185;50.978;13.720;2023-04-15T09:02:16;2.33;;;1.50;;
34978;SDS011;21185;50.978;13.720;2023-04-15T09:07:18;1.40;;;1.30;;
34978;SDS011;21185;50.978;13.720;2023-04-15T09:12:20;2.00;;;1.60;;
34978;SDS011;21185;50.978;13.720;2023-04-15T09:17:22;4.63;;;1.73;;
34978;SDS011;21185;50.978;13.720;2023-04-15T09:22:30;3.60;;;1.90;;
34978;SDS011;21185;50.978;13.720;2023-04-15T09:27:35;3.28;;;2.20;;
34978;SDS011;21185;50.978;13.720;2023-04-15T09:32:46;2.80;;;2.03;;
34978;SDS011;21185;50.978;13.720;2023-04-15T09:38:07;3.00;;;1.63;;
34978;SDS011;21185;50.978;13.720;2023-04-15T09:43:10;3.97;;;2.35;;
34978;SDS011;21185;50.978;13.720;2023-04-15T09:48:22;4.32;;;2.70;;
34978;SDS011;21185;50.978;13.720;2023-04-15T09:53:28;3.75;;;2.33;;
34978;SDS011;21185;50.978;13.720;2023-04-15T09:58:32;2.30;;;1.90;;
34978;SDS011;21185;50.978;13.720;2023-04-15T10:03:36;4.45;;;2.65;;
34978;SDS011;21185;50.978;13.720;2023-04-15T10:08:40;3.47;;;2.15;;
34978;SDS011;21185;50.978;13.720;2023-04-15T10:13:43;3.60;;;2.40;;
34978;SDS011;21185;50.978;13.720;2023-04-15T10:18:50;2.33;;;1.83;;
34978;SDS011;21185;50.978;13.720;2023-04-15T10:23:56;4.93;;;2.53;;
34978;SDS011;21185;50.978;13.720;2023-04-15T10:28:59;7.45;;;2.20;;
34978;SDS011;21185;50.978;13.720;2023-04-15T10:34:02;4.03;;;2.40;;
34978;SDS011;21185;50.978;13.720;2023-04-15T10:39:37;3.72;;;2.33;;
34978;SDS011;21185;50.978;13.720;2023-04-15T10:44:38;3.53;;;2.33;;
34978;SDS011;21185;50.978;13.720;2023-04-15T10:49:44;4.63;;;2.40;;
34978;SDS011;21185;50.978;13.720;2023-04-15T11:05:14;3.78;;;2.00;;
34978;SDS011;21185;50.978;13.720;2023-04-15T11:15:28;3.42;;;1.80;;
34978;SDS011;21185;50.978;13.720;2023-04-15T11:20:34;5.17;;;2.03;;
34978;SDS011;21185;50.978;13.720;2023-04-15T11:25:38;3.05;;;2.00;;
34978;SDS011;21185;50.978;13.720;2023-04-15T11:30:40;3.13;;;2.13;;
34978;SDS011;21185;50.978;13.720;2023-04-15T11:42:17;4.55;;;2.50;;
34978;SDS011;21185;50.978;13.720;2023-04-15T11:47:23;4.55;;;2.25;;
34978;SDS011;21185;50.978;13.720;2023-04-15T11:52:25;3.13;;;2.25;;
34978;SDS011;21185;50.978;13.720;2023-04-15T11:57:30;3.15;;;2.45;;
34978;SDS011;21185;50.978;13.720;2023-04-15T12:02:35;3.30;;;2.60;;
34978;SDS011;21185;50.978;13.720;2023-04-15T12:08:13;4.50;;;3.10;;
34978;SDS011;21185;50.978;13.720;2023-04-15T12:13:15;3.70;;;2.80;;
34978;SDS011;21185;50.978;13.720;2023-04-15T12:18:17;4.47;;;2.50;;
34978;SDS011;21185;50.978;13.720;2023-04-15T12:23:53;3.83;;;2.42;;
34978;SDS011;21185;50.978;13.720;2023-04-15T12:29:03;2.87;;;2.20;;
34978;SDS011;21185;50.978;13.720;2023-04-15T12:54:14;2.85;;;2.10;;
34978;SDS011;21185;50.978;13.720;2023-04-15T13:12:42;2.22;;;1.52;;
34978;SDS011;21185;50.978;13.720;2023-04-15T13:23:19;3.25;;;2.00;;
34978;SDS011;21185;50.978;13.720;2023-04-15T13:28:21;3.85;;;2.08;;
34978;SDS011;21185;50.978;13.720;2023-04-15T13:33:24;3.10;;;2.08;;
34978;SDS011;21185;50.978;13.720;2023-04-15T13:38:26;2.95;;;2.08;;
34978;SDS011;21185;50.978;13.720;2023-04-15T13:43:31;3.45;;;1.92;;
34978;SDS011;21185;50.978;13.720;2023-04-15T13:59:05;3.72;;;2.20;;
34978;SDS011;21185;50.978;13.720;2023-04-15T14:04:09;3.42;;;1.80;;
34978;SDS011;21185;50.978;13.720;2023-04-15T14:09:11;3.78;;;2.05;;
34978;SDS011;21185;50.978;13.720;2023-04-15T14:14:14;2.88;;;1.70;;
34978;SDS011;21185;50.978;13.720;2023-04-15T14:19:16;3.53;;;2.15;;
34978;SDS011;21185;50.978;13.720;2023-04-15T14:24:18;3.67;;;2.10;;
34978;SDS011;21185;50.978;13.720;2023-04-15T14:29:23;3.08;;;1.55;;
34978;SDS011;21185;50.978;13.720;2023-04-15T14:34:25;2.05;;;1.50;;
34978;SDS011;21185;50.978;13.720;2023-04-15T14:39:27;1.58;;;1.30;;
34978;SDS011;21185;50.978;13.720;2023-04-15T14:44:29;2.83;;;1.95;;
34978;SDS011;21185;50.978;13.720;2023-04-15T14:49:31;2.10;;;1.58;;
34978;SDS011;21185;50.978;13.720;2023-04-15T14:54:33;2.80;;;1.73;;
34978;SDS011;21185;50.978;13.720;2023-04-15T14:59:35;3.45;;;1.75;;
34978;SDS011;21185;50.978;13.720;2023-04-15T15:10:36;2.13;;;1.55;;
34978;SDS011;21185;50.978;13.720;2023-04-15T15:15:50;1.67;;;1.42;;
34978;SDS011;21185;50.978;13.720;2023-04-15T15:20:55;2.35;;;1.58;;
34978;SDS011;21185;50.978;13.720;2023-04-15T15:26:22;1.98;;;1.63;;
34978;SDS011;21185;50.978;13.720;2023-04-15T15:31:27;2.30;;;1.55;;
34978;SDS011;21185;50.978;13.720;2023-04-15T15:36:29;3.92;;;1.65;;
34978;SDS011;21185;50.978;13.720;2023-04-15T15:42:59;1.65;;;1.40;;
34978;SDS011;21185;50.978;13.720;2023-04-15T15:48:39;1.58;;;1.30;;
34978;SDS011;21185;50.978;13.720;2023-04-15T15:53:42;3.10;;;1.90;;
34978;SDS011;21185;50.978;13.720;2023-04-15T15:58:47;3.17;;;1.85;;
34978;SDS011;21185;50.978;13.720;2023-04-15T16:03:49;3.97;;;1.88;;
34978;SDS011;21185;50.978;13.720;2023-04-15T16:08:51;3.42;;;1.63;;
34978;SDS011;21185;50.978;13.720;2023-04-15T16:13:53;2.08;;;1.33;;
34978;SDS011;21185;50.978;13.720;2023-04-15T16:18:58;5.40;;;1.88;;
34978;SDS011;21185;50.978;13.720;2023-04-15T16:24:00;2.53;;;1.52;;
34978;SDS011;21185;50.978;13.720;2023-04-15T16:29:02;2.22;;;1.63;;
34978;SDS011;21185;50.978;13.720;2023-04-15T16:34:05;4.28;;;2.10;;
34978;SDS011;21185;50.978;13.720;2023-04-15T16:39:07;2.85;;;1.90;;
34978;SDS011;21185;50.978;13.720;2023-04-15T16:44:09;10.80;;;2.00;;
34978;SDS011;21185;50.978;13.720;2023-04-15T16:49:11;4.15;;;2.15;;
34978;SDS011;21185;50.978;13.720;2023-04-15T16:54:13;4.72;;;2.00;;
34978;SDS011;21185;50.978;13.720;2023-04-15T16:59:15;4.00;;;2.22;;
34978;SDS011;21185;50.978;13.720;2023-04-15T17:04:17;4.88;;;2.70;;
34978;SDS011;21185;50.978;13.720;2023-04-15T17:09:20;5.60;;;3.28;;
34978;SDS011;21185;50.978;13.720;2023-04-15T17:14:22;4.65;;;2.50;;
34978;SDS011;21185;50.978;13.720;2023-04-15T17:19:24;4.68;;;2.40;;
34978;SDS011;21185;50.978;13.720;2023-04-15T17:24:27;4.05;;;2.28;;
34978;SDS011;21185;50.978;13.720;2023-04-15T17:29:32;5.68;;;2.80;;
34978;SDS011;21185;50.978;13.720;2023-04-15T17:34:34;8.05;;;4.25;;
34978;SDS011;21185;50.978;13.720;2023-04-15T17:39:52;14.80;;;7.15;;
34978;SDS011;21185;50.978;13.720;2023-04-15T17:44:55;9.13;;;5.13;;
34978;SDS011;21185;50.978;13.720;2023-04-15T17:49:57;10.80;;;5.47;;
34978;SDS011;21185;50.978;13.720;2023-04-15T17:54:59;13.85;;;5.88;;
34978;SDS011;21185;50.978;13.720;2023-04-15T18:00:01;25.63;;;11.20;;
34978;SDS011;21185;50.978;13.720;2023-04-15T18:05:12;11.25;;;4.25;;
34978;SDS011;21185;50.978;13.720;2023-04-15T18:10:15;8.35;;;4.05;;
34978;SDS011;21185;50.978;13.720;2023-04-15T18:15:17;10.23;;;4.03;;
34978;SDS011;21185;50.978;13.720;2023-04-15T18:20:22;8.82;;;4.15;;
34978;SDS011;21185;50.978;13.720;2023-04-15T18:25:26;19.42;;;5.85;;
34978;SDS011;21185;50.978;13.720;2023-04-15T18:30:31;8.13;;;4.45;;
34978;SDS011;21185;50.978;13.720;2023-04-15T18:35:53;7.13;;;3.70;;
34978;SDS011;21185;50.978;13.720;2023-04-15T18:40:56;8.70;;;4.40;;
34978;SDS011;21185;50.978;13.720;2023-04-15T18:45:59;6.50;;;3.42;;
34978;SDS011;21185;50.978;13.720;2023-04-15T18:51:02;13.55;;;3.53;;
34978;SDS011;21185;50.978;13.720;2023-04-15T18:56:05;6.75;;;3.67;;
34978;SDS011;21185;50.978;13.720;2023-04-15T19:01:07;9.93;;;5.10;;
34978;SDS011;21185;50.978;13.720;2023-04-15T19:06:12;43.80;;;15.07;;
34978;SDS011;21185;50.978;13.720;2023-04-15T19:11:14;111.95;;;27.30;;
34978;SDS011;21185;50.978;13.720;2023-04-15T19:16:16;75.47;;;22.67;;
34978;SDS011;21185;50.978;13.720;2023-04-15T19:21:18;55.50;;;20.38;;
34978;SDS011;21185;50.978;13.720;2023-04-15T19:26:23;64.63;;;22.05;;
34978;SDS011;21185;50.978;13.720;2023-04-15T19:31:50;38.65;;;18.48;;
34978;SDS011;21185;50.978;13.720;2023-04-15T19:36:53;23.65;;;12.02;;
34978;SDS011;21185;50.978;13.720;2023-04-15T19:41:55;16.83;;;8.82;;
34978;SDS011;21185;50.978;13.720;2023-04-15T19:46:56;14.80;;;8.27;;
34978;SDS011;21185;50.978;13.720;2023-04-15T19:52:01;13.48;;;6.95;;
34978;SDS011;21185;50.978;13.720;2023-04-15T19:57:04;10.32;;;5.55;;
34978;SDS011;21185;50.978;13.720;2023-04-15T20:02:06;13.15;;;5.90;;
34978;SDS011;21185;50.978;13.720;2023-04-15T20:07:09;8.82;;;5.55;;
34978;SDS011;21185;50.978;13.720;2023-04-15T20:12:11;8.90;;;4.85;;
34978;SDS011;21185;50.978;13.720;2023-04-15T20:17:33;9.13;;;5.13;;
34978;SDS011;21185;50.978;13.720;2023-04-15T20:22:38;12.32;;;7.13;;
34978;SDS011;21185;50.978;13.720;2023-04-15T20:27:40;33.92;;;14.55;;
34978;SDS011;21185;50.978;13.720;2023-04-15T20:32:52;42.15;;;16.42;;
34978;SDS011;21185;50.978;13.720;2023-04-15T20:37:54;31.33;;;12.85;;
34978;SDS011;21185;50.978;13.720;2023-04-15T20:42:56;20.73;;;11.07;;
34978;SDS011;21185;50.978;13.720;2023-04-15T20:47:58;15.02;;;8.88;;
34978;SDS011;21185;50.978;13.720;2023-04-15T20:53:00;16.92;;;7.72;;
34978;SDS011;21185;50.978;13.720;2023-04-15T20:58:02;19.02;;;10.10;;
34978;SDS011;21185;50.978;13.720;2023-04-15T21:03:04;17.88;;;9.10;;
34978;SDS011;21185;50.978;13.720;2023-04-15T21:08:06;18.20;;;9.30;;
34978;SDS011;21185;50.978;13.720;2023-04-15T21:13:08;14.25;;;7.80;;
34978;SDS011;21185;50.978;13.720;2023-04-15T21:18:10;15.07;;;8.18;;
34978;SDS011;21185;50.978;13.720;2023-04-15T21:23:11;14.80;;;7.60;;
34978;SDS011;21185;50.978;13.720;2023-04-15T21:28:13;17.23;;;8.07;;
34978;SDS011;21185;50.978;13.720;2023-04-15T21:33:15;15.18;;;8.77;;
34978;SDS011;21185;50.978;13.720;2023-04-15T21:38:20;16.30;;;9.10;;
34978;SDS011;21185;50.978;13.720;2023-04-15T21:43:24;18.02;;;7.97;;
34978;SDS011;21185;50.978;13.720;2023-04-15T21:48:26;13.45;;;6.95;;
34978;SDS011;21185;50.978;13.720;2023-04-15T21:53:28;15.35;;;7.60;;
34978;SDS011;21185;50.978;13.720;2023-04-15T21:58:30;15.70;;;7.57;;
34978;SDS011;21185;50.978;13.720;2023-04-15T22:03:32;16.38;;;7.72;;
34978;SDS011;21185;50.978;13.720;2023-04-15T22:08:35;16.20;;;7.13;;
34978;SDS011;21185;50.978;13.720;2023-04-15T22:14:14;13.75;;;7.50;;
34978;SDS011;21185;50.978;13.720;2023-04-15T22:19:16;14.38;;;6.53;;
34978;SDS011;21185;50.978;13.720;2023-04-15T22:24:18;12.00;;;6.57;;
34978;SDS011;21185;50.978;13.720;2023-04-15T22:29:40;11.80;;;6.57;;
34978;SDS011;21185;50.978;13.720;2023-04-15T22:34:42;14.68;;;7.55;;
34978;SDS011;21185;50.978;13.720;2023-04-15T22:39:43;13.05;;;6.93;;
34978;SDS011;21185;50.978;13.720;2023-04-15T22:44:46;12.93;;;6.10;;
34978;SDS011;21185;50.978;13.720;2023-04-15T22:49:48;11.68;;;7.18;;
34978;SDS011;21185;50.978;13.720;2023-04-15T22:54:53;14.40;;;7.35;;
34978;SDS011;21185;50.978;13.720;2023-04-15T22:59:54;13.35;;;6.53;;
34978;SDS011;21185;50.978;13.720;2023-04-15T23:04:56;11.80;;;6.65;;
34978;SDS011;21185;50.978;13.720;2023-04-15T23:09:58;16.83;;;7.47;;
34978;SDS011;21185;50.978;13.720;2023-04-15T23:15:02;17.52;;;7.55;;
34978;SDS011;21185;50.978;13.720;2023-04-15T23:20:04;16.77;;;7.57;;
34978;SDS011;21185;50.978;13.720;2023-04-15T23:25:07;14.95;;;7.07;;
34978;SDS011;21185;50.978;13.720;2023-04-15T23:30:11;17.80;;;7.53;;
34978;SDS011;21185;50.978;13.720;2023-04-15T23:35:13;17.75;;;7.05;;
34978;SDS011;21185;50.978;13.720;2023-04-15T23:40:38;12.75;;;7.20;;
34978;SDS011;21185;50.978;13.720;2023-04-15T23:45:50;15.40;;;7.60;;
34978;SDS011;21185;50.978;13.720;2023-04-15T23:56:43;12.02;;;6.63;;
